SCRQ weather

Rucañanco Airport
Rio Bueno, Los Ríos Region, Chile

Public forecast

Using degrees Celsius for public forecast. Weather courtesy of forecast.io.

METAR (pilot weather report)

Report is more than 6 hours old.

Closest report is Cañal Bajo Carlos - Hott Siebert Airport, 14.2 nm (26.3 km) WSW. Retrieved 2019/04/19 22:00 UTC (10 hours ago):

SCJO 192200Z 15006KT 9999 FEW035 13/09 Q1017

TAF (pilot weather forecast)

Forecast is more than 12 hours old.

Closest forecast is Cañal Bajo Carlos - Hott Siebert Airport, 14.2 nm (26.3 km) WSW. Retrieved 2019/04/19 12:33 UTC (19 hours ago):

TAF SCJO 191015Z 1912/1924 19004KT 9999 OVC018 TN05/1912Z TX16/1919Z BECMG 1913/1915 18008KT BECMG 1916/1918 BKN020 BECMG 1921/1923 FEW025